Time;durP1;ratioP1;P1;durP2;ratioP2;P2;SDS_P1;SDS_P2;PMS_P1;PMS_P2;Temp;Humidity;BMP_temperature;BMP_pressure;BME280_temperature;BME280_humidity;BME280_pressure;Samples;Min_cycle;Max_cycle;Signal;HPM_P1;HPM_P2
2023/05/26 00:01:15;;;;;;;26.90;22.43;;;;;;;;;;5039733;28;20471;-82
2023/05/26 00:03:44;;;;;;;25.13;22.53;;;;;;;;;;5039914;28;20440;-82
2023/05/26 00:06:11;;;;;;;25.97;21.90;;;;;;;;;;5039442;28;20459;-83
2023/05/26 00:08:38;;;;;;;25.27;20.97;;;;;;;;;;5041987;28;20437;-82
2023/05/26 00:11:06;;;;;;;30.43;21.03;;;;;;;;;;5048850;28;20494;-82
2023/05/26 00:13:34;;;;;;;27.87;21.57;;;;;;;;;;5053031;28;20476;-81
2023/05/26 00:16:01;;;;;;;27.43;22.03;;;;;;;;;;5054469;28;20515;-84
2023/05/26 00:18:28;;;;;;;41.87;23.73;;;;;;;;;;5048289;28;20452;-84
2023/05/26 00:20:55;;;;;;;30.03;21.13;;;;;;;;;;5036311;28;20446;-84
2023/05/26 00:23:22;;;;;;;45.87;21.97;;;;;;;;;;5035942;28;20448;-81
2023/05/26 00:25:50;;;;;;;27.40;20.60;;;;;;;;;;5035729;28;20476;-82
2023/05/26 00:28:17;;;;;;;31.10;21.90;;;;;;;;;;5036244;28;20782;-82
2023/05/26 00:30:45;;;;;;;24.47;21.90;;;;;;;;;;5035932;28;20475;-82
2023/05/26 00:33:12;;;;;;;24.03;21.50;;;;;;;;;;5038432;28;21073;-82
2023/05/26 00:35:40;;;;;;;23.10;20.90;;;;;;;;;;5036202;28;20430;-83
2023/05/26 00:38:07;;;;;;;25.70;21.10;;;;;;;;;;5044352;28;21080;-80
2023/05/26 00:40:34;;;;;;;26.77;21.13;;;;;;;;;;5054617;28;20475;-81
2023/05/26 00:43:01;;;;;;;25.03;20.30;;;;;;;;;;5053536;28;20450;-81
2023/05/26 00:45:28;;;;;;;31.90;22.13;;;;;;;;;;5043981;28;20447;-82
2023/05/26 00:47:56;;;;;;;26.57;22.10;;;;;;;;;;5035307;28;20433;-82
2023/05/26 00:50:23;;;;;;;29.03;20.40;;;;;;;;;;5035428;28;21016;-82
2023/05/26 00:52:51;;;;;;;27.67;20.67;;;;;;;;;;5036175;28;20454;-82
2023/05/26 00:55:18;;;;;;;30.97;21.17;;;;;;;;;;5035216;28;20486;-82
2023/05/26 00:57:45;;;;;;;23.93;21.37;;;;;;;;;;5034534;28;20452;-81
2023/05/26 01:00:13;;;;;;;36.57;21.67;;;;;;;;;;5038391;28;20526;-83
2023/05/26 01:02:40;;;;;;;21.47;19.70;;;;;;;;;;5038372;28;20447;-83
2023/05/26 01:05:09;;;;;;;25.70;22.40;;;;;;;;;;5039245;28;20447;-82
2023/05/26 01:07:36;;;;;;;25.37;21.23;;;;;;;;;;5037658;28;20454;-82
2023/05/26 01:10:04;;;;;;;29.77;22.47;;;;;;;;;;5038766;28;20567;-82
2023/05/26 01:12:37;;;;;;;33.93;21.70;;;;;;;;;;5038216;28;20507;-82
2023/05/26 01:15:05;;;;;;;23.40;20.90;;;;;;;;;;5038379;28;20526;-83
2023/05/26 01:17:34;;;;;;;33.27;21.50;;;;;;;;;;5037715;28;20534;-82
2023/05/26 01:20:17;;;;;;;32.27;21.03;;;;;;;;;;5039008;28;20477;-82
2023/05/26 01:23:02;;;;;;;24.33;21.70;;;;;;;;;;5039217;28;20973;-82
2023/05/26 01:25:33;;;;;;;24.57;21.80;;;;;;;;;;5018566;28;20422;-81
2023/05/26 01:28:06;;;;;;;23.63;20.17;;;;;;;;;;5038889;28;20879;-82
2023/05/26 01:30:33;;;;;;;23.60;21.10;;;;;;;;;;5039590;28;20453;-81
2023/05/26 01:33:00;;;;;;;24.57;21.33;;;;;;;;;;5039193;28;20493;-82
2023/05/26 01:35:28;;;;;;;23.87;20.93;;;;;;;;;;5038353;28;20899;-81
2023/05/26 01:37:55;;;;;;;29.47;21.67;;;;;;;;;;5038219;28;20468;-81
2023/05/26 01:40:23;;;;;;;28.50;22.27;;;;;;;;;;5042349;28;20472;-81
2023/05/26 01:42:53;;;;;;;32.70;20.23;;;;;;;;;;5038543;28;20426;-81
2023/05/26 01:45:23;;;;;;;26.60;21.40;;;;;;;;;;5038100;28;20417;-81
2023/05/26 01:47:51;;;;;;;23.83;20.57;;;;;;;;;;5038089;28;20461;-81
2023/05/26 01:50:19;;;;;;;28.53;23.53;;;;;;;;;;5047436;28;20550;-80
2023/05/26 01:52:50;;;;;;;37.33;22.63;;;;;;;;;;5037541;28;20458;-80
2023/05/26 01:55:20;;;;;;;32.63;21.33;;;;;;;;;;5037718;28;20443;-81
2023/05/26 01:57:47;;;;;;;38.57;21.07;;;;;;;;;;5037140;28;20430;-81
2023/05/26 02:00:14;;;;;;;30.80;23.70;;;;;;;;;;5037885;28;20501;-80
2023/05/26 02:02:43;;;;;;;22.63;20.50;;;;;;;;;;5042353;28;20422;-82
2023/05/26 02:05:10;;;;;;;23.77;21.23;;;;;;;;;;5037231;28;20451;-82
2023/05/26 02:07:37;;;;;;;23.43;20.87;;;;;;;;;;5036412;28;20499;-80
2023/05/26 02:10:04;;;;;;;32.87;21.27;;;;;;;;;;5036572;28;20874;-81
2023/05/26 02:12:31;;;;;;;27.30;21.40;;;;;;;;;;5040403;28;20491;-83
2023/05/26 02:14:58;;;;;;;34.03;21.30;;;;;;;;;;5036770;28;20436;-82
2023/05/26 02:17:25;;;;;;;29.30;21.40;;;;;;;;;;5036281;28;20455;-82
2023/05/26 02:19:53;;;;;;;23.53;21.10;;;;;;;;;;5037181;28;20525;-80
2023/05/26 02:22:20;;;;;;;31.00;20.57;;;;;;;;;;5040646;28;20437;-80
2023/05/26 02:24:48;;;;;;;36.10;22.13;;;;;;;;;;5037209;28;20422;-80
2023/05/26 02:27:15;;;;;;;28.03;21.73;;;;;;;;;;5035866;28;20480;-80
2023/05/26 02:29:42;;;;;;;27.60;21.53;;;;;;;;;;5036703;28;20553;-78
2023/05/26 02:32:09;;;;;;;33.70;22.43;;;;;;;;;;5036629;28;20430;-82
2023/05/26 02:34:36;;;;;;;27.90;21.33;;;;;;;;;;5035273;28;20455;-80
2023/05/26 02:37:05;;;;;;;33.50;22.67;;;;;;;;;;5034766;28;20502;-80
2023/05/26 02:39:31;;;;;;;33.00;22.07;;;;;;;;;;5035123;28;20454;-79
2023/05/26 02:41:58;;;;;;;34.37;23.53;;;;;;;;;;5035464;28;20452;-80
2023/05/26 02:44:25;;;;;;;29.87;21.50;;;;;;;;;;5035241;28;20456;-81
2023/05/26 02:46:52;;;;;;;26.10;22.47;;;;;;;;;;5034540;28;20789;-81
2023/05/26 02:49:20;;;;;;;30.07;20.97;;;;;;;;;;5035095;28;20492;-82
2023/05/26 02:51:47;;;;;;;26.03;21.57;;;;;;;;;;5034908;28;20423;-82
2023/05/26 02:54:15;;;;;;;31.43;21.83;;;;;;;;;;5036164;28;20461;-84
2023/05/26 02:56:42;;;;;;;31.53;20.53;;;;;;;;;;5045872;28;20451;-83
2023/05/26 02:59:09;;;;;;;30.10;21.13;;;;;;;;;;5045732;28;20862;-84
2023/05/26 03:01:37;;;;;;;28.07;20.73;;;;;;;;;;5045894;28;20422;-84
2023/05/26 03:04:04;;;;;;;27.20;20.70;;;;;;;;;;5045114;28;20458;-84
2023/05/26 03:06:32;;;;;;;28.37;22.23;;;;;;;;;;5038211;28;20462;-82
2023/05/26 03:08:59;;;;;;;25.07;22.57;;;;;;;;;;5035456;28;20451;-82
2023/05/26 03:11:27;;;;;;;30.53;21.50;;;;;;;;;;5035830;28;20426;-81
2023/05/26 03:13:54;;;;;;;32.03;21.30;;;;;;;;;;5035026;28;20454;-82
2023/05/26 03:16:23;;;;;;;30.17;20.90;;;;;;;;;;5034708;28;20451;-83
2023/05/26 03:18:51;;;;;;;32.47;21.10;;;;;;;;;;5034824;28;20480;-81
2023/05/26 03:21:18;;;;;;;23.23;20.97;;;;;;;;;;5034271;28;20422;-82
2023/05/26 03:23:46;;;;;;;33.17;20.40;;;;;;;;;;5034766;28;20459;-81
2023/05/26 03:26:13;;;;;;;23.93;20.00;;;;;;;;;;5034268;28;20452;-79
2023/05/26 03:28:41;;;;;;;26.03;20.80;;;;;;;;;;5034609;28;20459;-79
2023/05/26 03:31:09;;;;;;;25.70;20.30;;;;;;;;;;5034613;28;20442;-79
2023/05/26 03:33:35;;;;;;;27.13;21.47;;;;;;;;;;5035325;28;20458;-79
2023/05/26 03:36:03;;;;;;;27.53;21.20;;;;;;;;;;5034433;28;20517;-79
2023/05/26 03:38:30;;;;;;;31.33;21.90;;;;;;;;;;5034506;28;20452;-80
2023/05/26 03:40:58;;;;;;;28.00;20.63;;;;;;;;;;5034740;28;20463;-77
2023/05/26 03:43:26;;;;;;;25.10;21.83;;;;;;;;;;5044761;28;20871;-81
2023/05/26 03:45:55;;;;;;;28.10;21.93;;;;;;;;;;5039808;28;20517;-78
2023/05/26 03:48:22;;;;;;;27.03;21.93;;;;;;;;;;5034783;28;20492;-79
2023/05/26 03:50:49;;;;;;;24.67;21.93;;;;;;;;;;5034701;28;20472;-79
2023/05/26 03:53:16;;;;;;;27.23;21.70;;;;;;;;;;5034590;28;20494;-80
2023/05/26 03:55:43;;;;;;;25.27;20.80;;;;;;;;;;5034366;28;20422;-79
2023/05/26 03:58:10;;;;;;;25.43;21.80;;;;;;;;;;5034882;28;20430;-79
2023/05/26 04:00:37;;;;;;;25.93;20.13;;;;;;;;;;5034179;28;20494;-80
2023/05/26 04:03:06;;;;;;;29.93;22.67;;;;;;;;;;5034745;28;20538;-79
2023/05/26 04:05:33;;;;;;;28.90;24.00;;;;;;;;;;5034644;28;20422;-79
2023/05/26 04:08:00;;;;;;;24.37;19.80;;;;;;;;;;5035097;28;20858;-80
2023/05/26 04:10:27;;;;;;;22.73;20.43;;;;;;;;;;5034582;28;20471;-79
2023/05/26 04:12:54;;;;;;;25.33;20.97;;;;;;;;;;5034849;28;20454;-79
2023/05/26 04:15:21;;;;;;;23.53;20.60;;;;;;;;;;5034774;28;20451;-79
2023/05/26 04:17:48;;;;;;;32.13;22.10;;;;;;;;;;5034377;28;20480;-79
2023/05/26 04:20:16;;;;;;;29.47;20.77;;;;;;;;;;5034261;28;20534;-79
2023/05/26 04:22:43;;;;;;;25.97;20.70;;;;;;;;;;5034926;28;20430;-79
2023/05/26 04:25:11;;;;;;;26.02;20.67;;;;;;;;;;5034607;28;20451;-79
2023/05/26 04:27:39;;;;;;;27.33;20.83;;;;;;;;;;5034309;28;20288;-78
2023/05/26 04:30:06;;;;;;;29.30;21.50;;;;;;;;;;5034556;28;21056;-79
2023/05/26 04:32:35;;;;;;;28.53;23.13;;;;;;;;;;5035078;28;20497;-79
2023/05/26 04:35:03;;;;;;;35.95;22.45;;;;;;;;;;5038408;28;20567;-78
2023/05/26 04:37:33;;;;;;;27.03;21.43;;;;;;;;;;5041981;28;20209;-81
2023/05/26 04:40:00;;;;;;;30.20;21.50;;;;;;;;;;5044492;28;20478;-80
2023/05/26 04:42:27;;;;;;;30.37;21.70;;;;;;;;;;5038812;28;20503;-78
2023/05/26 04:44:55;;;;;;;27.30;20.80;;;;;;;;;;5038558;28;20443;-79
2023/05/26 04:47:23;;;;;;;22.30;20.00;;;;;;;;;;5037878;28;20463;-79
2023/05/26 04:49:51;;;;;;;22.73;20.70;;;;;;;;;;5038796;28;20483;-80
2023/05/26 04:52:18;;;;;;;32.33;22.90;;;;;;;;;;5042524;28;20430;-79
2023/05/26 04:54:47;;;;;;;25.10;20.80;;;;;;;;;;5041318;28;20991;-79
2023/05/26 04:57:13;;;;;;;24.70;21.60;;;;;;;;;;5038040;28;20858;-79
2023/05/26 04:59:42;;;;;;;25.00;21.30;;;;;;;;;;5038092;28;20541;-80
2023/05/26 05:02:09;;;;;;;27.83;21.40;;;;;;;;;;5038206;28;20422;-79
2023/05/26 05:04:36;;;;;;;32.07;23.03;;;;;;;;;;5038494;28;20447;-79
2023/05/26 05:07:03;;;;;;;23.50;21.10;;;;;;;;;;5038642;28;20430;-80
2023/05/26 05:09:30;;;;;;;26.63;21.47;;;;;;;;;;5059691;28;20423;-79
2023/05/26 05:11:58;;;;;;;25.10;21.73;;;;;;;;;;5060413;28;20436;-80
2023/05/26 05:14:25;;;;;;;24.87;21.33;;;;;;;;;;5055784;28;20543;-81
2023/05/26 05:16:52;;;;;;;24.20;21.73;;;;;;;;;;5046404;28;20522;-81
2023/05/26 05:19:19;;;;;;;23.07;20.80;;;;;;;;;;5046869;28;20450;-81
2023/05/26 05:21:46;;;;;;;23.63;21.43;;;;;;;;;;5045930;28;20456;-81
2023/05/26 05:24:14;;;;;;;24.97;20.90;;;;;;;;;;5046154;28;20459;-80
2023/05/26 05:26:41;;;;;;;35.33;22.17;;;;;;;;;;5045396;28;20434;-80
2023/05/26 05:29:10;;;;;;;26.90;22.17;;;;;;;;;;5045341;28;20932;-82
2023/05/26 05:31:38;;;;;;;25.70;21.90;;;;;;;;;;5044735;28;20468;-78
2023/05/26 05:34:05;;;;;;;26.30;21.73;;;;;;;;;;5044466;28;20487;-80
2023/05/26 05:36:33;;;;;;;24.07;21.87;;;;;;;;;;5043848;28;20796;-80
2023/05/26 05:39:00;;;;;;;23.10;20.80;;;;;;;;;;5044162;28;20545;-79
2023/05/26 05:41:28;;;;;;;26.87;23.80;;;;;;;;;;5043003;28;20454;-80
2023/05/26 05:43:56;;;;;;;22.30;19.57;;;;;;;;;;5037752;28;20458;-79
2023/05/26 05:46:24;;;;;;;25.87;20.83;;;;;;;;;;5040941;28;20459;-81
2023/05/26 05:48:51;;;;;;;27.93;21.90;;;;;;;;;;5042804;28;20447;-80
2023/05/26 05:51:18;;;;;;;28.60;21.83;;;;;;;;;;5041206;28;20452;-80
2023/05/26 05:53:45;;;;;;;29.00;22.53;;;;;;;;;;5039281;28;20588;-79
2023/05/26 05:56:13;;;;;;;30.57;22.07;;;;;;;;;;5038019;28;20482;-79
2023/05/26 05:58:40;;;;;;;24.17;22.07;;;;;;;;;;5037280;28;20455;-79
2023/05/26 06:01:08;;;;;;;23.07;20.70;;;;;;;;;;5037489;28;20484;-79
2023/05/26 06:03:36;;;;;;;30.20;21.20;;;;;;;;;;5037566;28;20534;-79
2023/05/26 06:06:03;;;;;;;27.13;21.90;;;;;;;;;;5037293;28;20455;-80
2023/05/26 06:08:30;;;;;;;23.83;20.40;;;;;;;;;;5037786;28;20529;-80
2023/05/26 06:10:57;;;;;;;26.97;21.93;;;;;;;;;;5037345;28;20471;-80
2023/05/26 06:13:24;;;;;;;27.50;21.10;;;;;;;;;;5037507;28;20535;-79
2023/05/26 06:15:51;;;;;;;29.10;22.97;;;;;;;;;;5037152;28;20459;-80
2023/05/26 06:18:18;;;;;;;30.50;21.73;;;;;;;;;;5047395;28;20469;-80
2023/05/26 06:20:47;;;;;;;28.03;21.90;;;;;;;;;;5057444;28;20463;-80
2023/05/26 06:23:14;;;;;;;36.27;24.00;;;;;;;;;;5057572;28;20481;-82
2023/05/26 06:25:41;;;;;;;26.10;23.33;;;;;;;;;;5056649;28;20446;-80
2023/05/26 06:28:08;;;;;;;24.80;22.03;;;;;;;;;;5056924;28;20475;-79
2023/05/26 06:30:35;;;;;;;29.50;24.30;;;;;;;;;;5061034;28;20493;-80
2023/05/26 06:33:02;;;;;;;24.50;22.03;;;;;;;;;;5061908;28;20433;-80
2023/05/26 06:35:29;;;;;;;24.00;21.57;;;;;;;;;;5060563;28;20504;-80
2023/05/26 06:37:57;;;;;;;25.97;22.83;;;;;;;;;;5057735;28;20454;-79
2023/05/26 06:40:24;;;;;;;23.43;20.93;;;;;;;;;;5056656;28;20540;-80
2023/05/26 06:42:51;;;;;;;33.60;23.30;;;;;;;;;;5057313;28;20451;-79
2023/05/26 06:45:18;;;;;;;23.80;21.57;;;;;;;;;;5057136;28;20447;-79
2023/05/26 06:47:45;;;;;;;27.47;21.90;;;;;;;;;;5056085;28;20467;-80
2023/05/26 06:50:12;;;;;;;34.87;22.07;;;;;;;;;;5056704;28;20478;-78
2023/05/26 06:52:40;;;;;;;41.50;22.80;;;;;;;;;;5057254;28;20455;-79
2023/05/26 06:55:08;;;;;;;25.57;21.97;;;;;;;;;;5057270;28;20487;-80
2023/05/26 06:57:35;;;;;;;24.87;22.23;;;;;;;;;;5055192;28;20801;-80
2023/05/26 07:00:03;;;;;;;24.13;21.27;;;;;;;;;;5056538;28;20482;-81
2023/05/26 07:02:30;;;;;;;24.43;22.03;;;;;;;;;;5063445;28;20422;-81
2023/05/26 07:04:57;;;;;;;27.53;22.30;;;;;;;;;;5064233;28;20455;-81
2023/05/26 07:07:24;;;;;;;25.13;22.80;;;;;;;;;;5063646;28;20459;-82
2023/05/26 07:09:51;;;;;;;30.73;23.43;;;;;;;;;;5064257;28;20462;-82
2023/05/26 07:12:20;;;;;;;27.47;23.07;;;;;;;;;;5080909;28;20428;-80
2023/05/26 07:14:47;;;;;;;27.43;23.33;;;;;;;;;;5080891;28;20529;-83
2023/05/26 07:17:14;;;;;;;26.30;24.03;;;;;;;;;;5079967;28;20905;-78
2023/05/26 07:19:41;;;;;;;26.70;22.10;;;;;;;;;;5079102;28;20973;-80
2023/05/26 07:22:08;;;;;;;27.97;22.60;;;;;;;;;;5080699;28;20490;-79
2023/05/26 07:24:35;;;;;;;30.30;24.13;;;;;;;;;;5080703;28;20495;-79
2023/05/26 07:27:02;;;;;;;25.80;23.10;;;;;;;;;;5079780;28;20959;-79
2023/05/26 07:29:30;;;;;;;25.57;23.03;;;;;;;;;;5079602;28;20871;-79
2023/05/26 07:31:57;;;;;;;25.13;22.70;;;;;;;;;;5080006;28;20865;-79
2023/05/26 07:34:24;;;;;;;27.50;21.97;;;;;;;;;;5081579;28;20448;-79
2023/05/26 07:36:51;;;;;;;26.97;23.60;;;;;;;;;;5080987;28;20455;-79
2023/05/26 07:39:18;;;;;;;28.00;23.13;;;;;;;;;;5078180;28;20444;-78
2023/05/26 07:41:46;;;;;;;32.00;23.10;;;;;;;;;;5078314;28;20453;-79
2023/05/26 07:44:13;;;;;;;29.97;24.47;;;;;;;;;;5078402;28;20424;-79
2023/05/26 07:46:41;;;;;;;26.10;22.67;;;;;;;;;;5075407;28;20462;-79
2023/05/26 07:49:08;;;;;;;25.77;23.27;;;;;;;;;;5076005;28;20449;-79
2023/05/26 07:51:35;;;;;;;26.90;24.00;;;;;;;;;;5075725;28;20428;-79
2023/05/26 07:54:02;;;;;;;27.13;24.17;;;;;;;;;;5075472;28;20539;-79
2023/05/26 07:56:29;;;;;;;31.43;24.03;;;;;;;;;;5074186;28;20469;-78
2023/05/26 07:58:56;;;;;;;25.47;22.53;;;;;;;;;;5075639;28;20424;-79
2023/05/26 08:01:23;;;;;;;28.97;23.13;;;;;;;;;;5075446;28;20455;-79
2023/05/26 08:03:51;;;;;;;30.10;23.73;;;;;;;;;;5075414;28;20416;-81
2023/05/26 08:06:18;;;;;;;24.60;22.43;;;;;;;;;;5074444;28;20850;-83
2023/05/26 08:08:45;;;;;;;25.10;23.10;;;;;;;;;;5077740;28;20849;-79
2023/05/26 08:11:12;;;;;;;26.13;23.50;;;;;;;;;;5078546;28;20526;-77
2023/05/26 08:13:39;;;;;;;36.70;27.90;;;;;;;;;;5078280;28;20429;-77
2023/05/26 08:16:07;;;;;;;26.60;24.00;;;;;;;;;;5077285;28;21021;-77
2023/05/26 08:18:34;;;;;;;25.27;22.90;;;;;;;;;;5077747;28;20469;-77
2023/05/26 08:21:02;;;;;;;24.37;22.00;;;;;;;;;;5079315;28;20447;-78
2023/05/26 08:23:29;;;;;;;29.87;22.60;;;;;;;;;;5078902;28;20858;-78
2023/05/26 08:25:56;;;;;;;26.13;23.30;;;;;;;;;;5078266;28;20978;-78
2023/05/26 08:28:23;;;;;;;26.93;24.13;;;;;;;;;;5079657;28;20428;-78
2023/05/26 08:30:51;;;;;;;26.87;24.40;;;;;;;;;;5078914;28;20517;-78
2023/05/26 08:33:18;;;;;;;26.27;23.23;;;;;;;;;;5079294;28;20425;-77
2023/05/26 08:35:45;;;;;;;26.80;24.80;;;;;;;;;;5079598;28;20539;-79
2023/05/26 08:38:13;;;;;;;30.50;24.30;;;;;;;;;;5079058;28;20485;-78
2023/05/26 08:40:40;;;;;;;24.97;22.43;;;;;;;;;;5079602;28;20462;-79
2023/05/26 08:43:07;;;;;;;26.77;23.97;;;;;;;;;;5078391;28;20825;-77
2023/05/26 08:45:35;;;;;;;37.40;23.57;;;;;;;;;;5078989;28;20915;-79
2023/05/26 08:48:02;;;;;;;27.63;24.67;;;;;;;;;;5079152;28;20462;-78
2023/05/26 08:50:30;;;;;;;27.67;24.40;;;;;;;;;;5079546;28;20444;-77
2023/05/26 08:52:57;;;;;;;29.13;24.03;;;;;;;;;;5077827;28;20540;-76
2023/05/26 08:55:26;;;;;;;26.60;24.00;;;;;;;;;;5077369;28;20470;-77
2023/05/26 08:57:53;;;;;;;25.97;23.27;;;;;;;;;;5076486;28;20439;-77
2023/05/26 09:00:21;;;;;;;31.97;23.97;;;;;;;;;;5076817;28;20474;-77
2023/05/26 09:02:48;;;;;;;39.37;26.40;;;;;;;;;;5076760;28;20459;-79
2023/05/26 09:05:15;;;;;;;27.63;24.73;;;;;;;;;;5077789;28;20929;-78
2023/05/26 09:07:42;;;;;;;28.80;25.50;;;;;;;;;;5075200;28;20937;-78
2023/05/26 09:10:23;;;;;;;27.27;24.60;;;;;;;;;;5055557;28;20512;-82
2023/05/26 09:13:02;;;;;;;31.60;24.90;;;;;;;;;;5038121;28;20443;-85
2023/05/26 09:15:29;;;;;;;26.47;22.83;;;;;;;;;;5037312;28;20461;-85
2023/05/26 09:17:56;;;;;;;26.60;23.90;;;;;;;;;;5037611;28;20486;-84
2023/05/26 09:20:23;;;;;;;28.83;24.70;;;;;;;;;;5036607;28;21112;-85
2023/05/26 09:22:50;;;;;;;25.77;23.33;;;;;;;;;;5037639;28;20452;-85
2023/05/26 09:25:18;;;;;;;27.33;24.73;;;;;;;;;;5036847;28;20460;-84
2023/05/26 09:27:48;;;;;;;31.50;25.10;;;;;;;;;;5039628;28;20422;-84
2023/05/26 09:30:16;;;;;;;35.47;26.10;;;;;;;;;;5038883;28;20471;-85
2023/05/26 09:32:46;;;;;;;26.50;23.77;;;;;;;;;;5038835;28;20422;-86
2023/05/26 09:35:13;;;;;;;29.57;24.87;;;;;;;;;;5042501;28;20467;-86
2023/05/26 09:37:44;;;;;;;27.97;23.80;;;;;;;;;;5041371;28;20476;-86
2023/05/26 09:40:14;;;;;;;26.30;24.07;;;;;;;;;;5041962;28;20448;-83
2023/05/26 09:42:47;;;;;;;25.57;23.57;;;;;;;;;;5055714;28;20451;-84
2023/05/26 09:45:15;;;;;;;26.73;23.93;;;;;;;;;;5063249;28;20418;-84
2023/05/26 09:47:43;;;;;;;28.97;24.70;;;;;;;;;;5079244;28;20589;-87
2023/05/26 09:50:21;;;;;;;30.47;27.07;;;;;;;;;;5062041;28;20449;-87
2023/05/26 09:52:50;;;;;;;27.33;24.73;;;;;;;;;;5061290;28;20413;-87
2023/05/26 09:55:17;;;;;;;29.57;25.30;;;;;;;;;;5063005;28;20486;-84
2023/05/26 09:57:46;;;;;;;30.10;27.17;;;;;;;;;;5041368;28;20419;-83
2023/05/26 10:00:16;;;;;;;26.60;24.07;;;;;;;;;;5044781;28;20923;-80
2023/05/26 10:02:44;;;;;;;26.70;24.10;;;;;;;;;;5046752;28;20470;-82
2023/05/26 10:05:12;;;;;;;30.43;24.97;;;;;;;;;;5052384;28;20983;-84
2023/05/26 10:07:42;;;;;;;26.27;23.67;;;;;;;;;;5055340;28;20423;-83
2023/05/26 10:10:13;;;;;;;26.13;23.53;;;;;;;;;;5056945;28;20531;-84
2023/05/26 10:12:41;;;;;;;29.23;25.30;;;;;;;;;;5055298;28;20568;-76
2023/05/26 10:15:08;;;;;;;27.20;24.60;;;;;;;;;;5055582;28;20450;-87
2023/05/26 10:17:35;;;;;;;28.67;25.70;;;;;;;;;;5057590;28;20452;-84
2023/05/26 10:20:04;;;;;;;30.57;23.60;;;;;;;;;;5058417;28;20503;-83
2023/05/26 10:22:34;;;;;;;25.73;23.60;;;;;;;;;;5056999;28;20437;-83
2023/05/26 10:25:03;;;;;;;26.70;24.07;;;;;;;;;;5057559;28;20467;-82
2023/05/26 10:27:33;;;;;;;25.83;23.53;;;;;;;;;;5056392;28;20421;-83
2023/05/26 10:30:05;;;;;;;33.43;24.70;;;;;;;;;;5058049;28;20485;-84
2023/05/26 10:32:46;;;;;;;29.17;26.30;;;;;;;;;;5058362;28;20477;-82
2023/05/26 10:35:27;;;;;;;27.00;24.23;;;;;;;;;;5058381;28;20449;-81
2023/05/26 10:37:55;;;;;;;26.30;23.80;;;;;;;;;;5057524;28;20455;-77
2023/05/26 10:40:26;;;;;;;26.87;24.37;;;;;;;;;;5055934;28;20961;-75
2023/05/26 10:42:53;;;;;;;28.23;25.63;;;;;;;;;;5055163;28;20459;-77
2023/05/26 10:45:20;;;;;;;29.03;23.90;;;;;;;;;;5054359;28;20463;-77
2023/05/26 10:47:48;;;;;;;25.47;23.00;;;;;;;;;;5054467;28;20476;-77
2023/05/26 10:50:15;;;;;;;26.60;24.30;;;;;;;;;;5055224;28;20476;-78
2023/05/26 10:52:51;;;;;;;27.87;24.90;;;;;;;;;;5055516;28;21016;-79
2023/05/26 10:55:31;;;;;;;26.13;24.20;;;;;;;;;;5057240;28;20498;-78
2023/05/26 10:58:13;;;;;;;27.50;25.10;;;;;;;;;;5066622;28;20992;-84
2023/05/26 11:00:43;;;;;;;27.10;24.50;;;;;;;;;;5075921;28;20451;-84
2023/05/26 11:03:25;;;;;;;25.90;23.80;;;;;;;;;;5070366;28;20946;-77
2023/05/26 11:05:56;;;;;;;26.30;24.03;;;;;;;;;;5055571;28;20470;-78
2023/05/26 11:08:24;;;;;;;33.77;24.43;;;;;;;;;;5056372;28;21027;-79
2023/05/26 11:11:00;;;;;;;28.20;25.73;;;;;;;;;;5053015;28;20967;-75
2023/05/26 11:13:43;;;;;;;26.23;24.23;;;;;;;;;;5053081;28;20429;-75
2023/05/26 11:16:12;;;;;;;27.30;24.60;;;;;;;;;;5040615;28;20446;-76
2023/05/26 11:18:40;;;;;;;28.23;25.27;;;;;;;;;;5032703;28;21002;-76
2023/05/26 11:21:07;;;;;;;27.37;24.93;;;;;;;;;;5032924;28;20450;-76
2023/05/26 11:23:38;;;;;;;27.17;24.30;;;;;;;;;;5033146;28;20482;-77
2023/05/26 11:26:11;;;;;;;26.37;24.10;;;;;;;;;;5027527;28;20801;-76
2023/05/26 11:28:40;;;;;;;26.70;24.53;;;;;;;;;;5029508;28;20593;-75
2023/05/26 11:31:11;;;;;;;26.90;24.60;;;;;;;;;;5035576;28;20494;-78
2023/05/26 11:33:38;;;;;;;25.27;23.10;;;;;;;;;;5034970;28;20456;-80
2023/05/26 11:36:12;;;;;;;26.70;24.70;;;;;;;;;;5040910;28;20453;-80
2023/05/26 11:38:42;;;;;;;27.47;25.37;;;;;;;;;;5035768;28;20457;-77
2023/05/26 11:41:10;;;;;;;26.93;24.23;;;;;;;;;;5048683;28;20528;-81
2023/05/26 11:43:37;;;;;;;26.73;24.37;;;;;;;;;;5077987;28;20428;-82
2023/05/26 11:46:05;;;;;;;25.97;23.87;;;;;;;;;;5080096;28;20450;-83
2023/05/26 11:48:35;;;;;;;26.60;24.20;;;;;;;;;;5080674;28;20462;-82
2023/05/26 11:51:01;;;;;;;25.20;23.10;;;;;;;;;;5080786;28;20569;-82
2023/05/26 11:53:30;;;;;;;26.00;23.70;;;;;;;;;;5076217;28;20454;-82
2023/05/26 11:56:09;;;;;;;25.33;23.33;;;;;;;;;;5075327;28;20482;-81
2023/05/26 11:58:43;;;;;;;25.07;23.03;;;;;;;;;;5076643;28;20425;-86
2023/05/26 12:01:11;;;;;;;25.33;23.43;;;;;;;;;;5075207;28;20448;-84
2023/05/26 12:03:40;;;;;;;26.70;24.10;;;;;;;;;;5061210;28;20454;-86
2023/05/26 12:06:08;;;;;;;26.10;23.70;;;;;;;;;;5056953;28;20510;-86
2023/05/26 12:08:51;;;;;;;25.30;23.10;;;;;;;;;;5055961;28;20435;-86
2023/05/26 12:11:21;;;;;;;27.33;25.03;;;;;;;;;;5056088;28;20479;-86
2023/05/26 12:13:49;;;;;;;26.10;24.10;;;;;;;;;;5054842;28;20461;-86
2023/05/26 12:16:24;;;;;;;25.70;23.50;;;;;;;;;;5053881;28;20495;-85
2023/05/26 12:18:55;;;;;;;23.93;22.13;;;;;;;;;;5054639;28;20803;-80
2023/05/26 12:21:22;;;;;;;26.80;24.60;;;;;;;;;;5056432;28;20415;-85
2023/05/26 12:23:50;;;;;;;25.67;23.60;;;;;;;;;;5055853;28;20455;-86
2023/05/26 12:26:17;;;;;;;25.53;23.43;;;;;;;;;;5055019;28;20779;-85
2023/05/26 12:28:46;;;;;;;28.03;25.50;;;;;;;;;;5059180;28;20480;-85
2023/05/26 12:31:13;;;;;;;27.30;25.23;;;;;;;;;;5054967;28;20554;-83
2023/05/26 12:33:40;;;;;;;27.07;24.80;;;;;;;;;;5055588;28;20413;-78
2023/05/26 12:36:08;;;;;;;26.57;24.27;;;;;;;;;;5054413;28;20566;-81
2023/05/26 12:38:41;;;;;;;27.07;24.40;;;;;;;;;;5055405;28;20434;-82
2023/05/26 12:41:08;;;;;;;26.77;24.33;;;;;;;;;;5053824;28;20462;-81
2023/05/26 12:43:36;;;;;;;26.87;24.30;;;;;;;;;;5055272;28;20448;-84
2023/05/26 12:46:04;;;;;;;26.40;24.30;;;;;;;;;;5054143;28;21128;-83
2023/05/26 12:48:31;;;;;;;26.00;23.80;;;;;;;;;;5054519;28;20514;-84
2023/05/26 12:50:59;;;;;;;26.23;24.03;;;;;;;;;;5053548;28;20954;-84
2023/05/26 12:53:26;;;;;;;26.00;23.80;;;;;;;;;;5034465;28;20505;-79
2023/05/26 12:55:53;;;;;;;26.83;24.50;;;;;;;;;;5038920;28;20481;-83
2023/05/26 12:58:21;;;;;;;28.17;25.30;;;;;;;;;;5038963;28;20462;-81
2023/05/26 13:00:49;;;;;;;27.57;25.13;;;;;;;;;;5038593;28;20458;-80
2023/05/26 13:03:17;;;;;;;31.83;25.70;;;;;;;;;;5038423;28;20504;-80
2023/05/26 13:05:44;;;;;;;27.70;25.03;;;;;;;;;;5037766;28;20431;-82
2023/05/26 13:08:11;;;;;;;26.80;24.57;;;;;;;;;;5039069;28;20427;-81
2023/05/26 13:10:38;;;;;;;26.90;24.70;;;;;;;;;;5039242;28;20852;-81
2023/05/26 13:13:05;;;;;;;27.97;25.57;;;;;;;;;;5038973;28;20515;-82
2023/05/26 13:15:32;;;;;;;28.10;25.50;;;;;;;;;;5038251;28;20439;-81
2023/05/26 13:17:59;;;;;;;29.87;26.70;;;;;;;;;;5038803;28;20407;-82
2023/05/26 13:20:28;;;;;;;27.80;24.90;;;;;;;;;;5038923;28;20471;-83
2023/05/26 13:22:55;;;;;;;28.40;26.10;;;;;;;;;;5039505;28;20448;-83
2023/05/26 13:25:22;;;;;;;27.40;24.90;;;;;;;;;;5041743;28;20419;-81
2023/05/26 13:27:49;;;;;;;28.87;25.97;;;;;;;;;;5038494;28;20784;-83
2023/05/26 13:30:16;;;;;;;29.87;27.23;;;;;;;;;;5041016;28;20477;-81
2023/05/26 13:32:43;;;;;;;29.00;26.60;;;;;;;;;;5040003;28;20435;-81
2023/05/26 13:35:10;;;;;;;34.30;28.40;;;;;;;;;;5040080;28;20424;-83
2023/05/26 13:37:38;;;;;;;29.17;26.77;;;;;;;;;;5037164;28;20464;-81
2023/05/26 13:40:07;;;;;;;30.43;27.70;;;;;;;;;;5038611;28;20473;-82
2023/05/26 13:42:34;;;;;;;30.47;28.07;;;;;;;;;;5037227;28;20991;-87
2023/05/26 13:45:02;;;;;;;28.27;25.90;;;;;;;;;;5038139;28;20858;-81
2023/05/26 13:47:29;;;;;;;27.23;24.90;;;;;;;;;;5038516;28;20432;-86
2023/05/26 13:49:57;;;;;;;29.97;27.50;;;;;;;;;;5037847;28;20448;-84
2023/05/26 13:52:24;;;;;;;29.13;26.67;;;;;;;;;;5037829;28;20824;-81
2023/05/26 13:54:52;;;;;;;27.57;25.43;;;;;;;;;;5038700;28;20468;-84
2023/05/26 13:57:22;;;;;;;29.77;27.13;;;;;;;;;;5037111;28;20537;-85
2023/05/26 13:59:50;;;;;;;29.00;26.57;;;;;;;;;;5038389;28;20463;-84
2023/05/26 14:02:17;;;;;;;30.57;27.97;;;;;;;;;;5038691;28;20459;-84
2023/05/26 14:04:44;;;;;;;30.33;27.50;;;;;;;;;;5037026;28;20884;-83
2023/05/26 14:07:11;;;;;;;27.03;24.90;;;;;;;;;;5037154;28;20424;-78
2023/05/26 14:09:38;;;;;;;27.27;25.07;;;;;;;;;;5038257;28;20507;-78
2023/05/26 14:12:07;;;;;;;27.20;24.27;;;;;;;;;;5039545;28;20428;-87
2023/05/26 14:14:34;;;;;;;26.93;24.43;;;;;;;;;;5046972;28;20427;-85
2023/05/26 14:17:01;;;;;;;28.47;25.90;;;;;;;;;;5057000;28;20490;-83
2023/05/26 14:19:28;;;;;;;28.33;26.00;;;;;;;;;;5053163;28;20491;-78
2023/05/26 14:21:55;;;;;;;28.93;26.60;;;;;;;;;;5043636;28;20515;-81